createdAt,value
2024-01-06T00:03:12.618Z,48.50
2024-01-06T00:13:16.015Z,44.50
2024-01-06T00:23:19.250Z,42.30
2024-01-06T00:33:22.499Z,41.70
2024-01-06T00:43:25.618Z,39.20
2024-01-06T00:53:28.966Z,40.10
2024-01-06T01:03:32.190Z,42.10
2024-01-06T01:13:35.471Z,43.50
2024-01-06T01:23:38.664Z,38.60
2024-01-06T01:33:42.091Z,37.20
2024-01-06T01:43:47.140Z,34.70
2024-01-06T01:53:50.768Z,34.20
2024-01-06T02:03:54.135Z,33.20
2024-01-06T02:13:57.333Z,32.60
2024-01-06T02:24:00.602Z,30.20
2024-01-06T02:34:04.121Z,30.60
2024-01-06T02:44:09.097Z,28.40
2024-01-06T02:54:13.970Z,26.70
2024-01-06T03:04:17.344Z,23.40
2024-01-06T03:14:20.672Z,29.00
2024-01-06T03:24:25.441Z,25.20
2024-01-06T03:34:28.575Z,24.10
2024-01-06T03:44:34.833Z,23.10
2024-01-06T03:54:38.265Z,21.00
2024-01-06T04:04:41.445Z,17.50
2024-01-06T04:14:44.757Z,21.10
2024-01-06T04:24:48.045Z,19.90
2024-01-06T04:34:51.059Z,18.60
2024-01-06T04:44:54.229Z,18.80
2024-01-06T04:54:57.381Z,16.70
2024-01-06T05:05:00.645Z,20.60
2024-01-06T05:15:05.084Z,21.50
2024-01-06T05:25:08.954Z,20.50
2024-01-06T05:35:12.072Z,19.80
2024-01-06T05:45:15.576Z,18.10
2024-01-06T05:55:18.982Z,17.20
2024-01-06T06:05:22.007Z,15.10
2024-01-06T06:15:25.240Z,15.30
2024-01-06T06:25:28.614Z,16.20
2024-01-06T06:35:31.913Z,15.00
2024-01-06T06:45:35.010Z,15.70
2024-01-06T06:55:38.955Z,16.70
2024-01-06T07:05:42.310Z,15.50
2024-01-06T07:15:46.367Z,14.50
2024-01-06T07:25:50.608Z,15.30
2024-01-06T07:35:53.851Z,16.00
2024-01-06T07:45:57.357Z,16.20
2024-01-06T07:56:00.609Z,17.60
2024-01-06T08:06:04.897Z,20.20
2024-01-06T08:16:08.211Z,19.60
2024-01-06T08:26:13.666Z,24.00
2024-01-06T08:36:18.150Z,25.30
2024-01-06T08:46:21.495Z,26.10
2024-01-06T08:56:24.620Z,29.40
2024-01-06T09:06:27.990Z,20.10
2024-01-06T09:16:31.101Z,10.40
2024-01-06T09:26:37.171Z,9.00
2024-01-06T09:36:40.364Z,10.20
2024-01-06T09:46:44.930Z,8.50
2024-01-06T09:56:50.328Z,13.30
2024-01-06T10:06:53.368Z,13.00
2024-01-06T10:16:57.066Z,20.60
2024-01-06T10:27:00.643Z,27.20
2024-01-06T10:37:05.167Z,28.20
2024-01-06T10:47:09.230Z,25.90
2024-01-06T10:57:13.174Z,20.20
2024-01-06T11:07:25.701Z,37.00
2024-01-06T11:18:00.168Z,33.50
2024-01-06T11:28:09.007Z,37.30
2024-01-06T11:38:15.241Z,29.10
2024-01-06T11:48:20.274Z,16.60
2024-01-06T11:58:24.642Z,16.10
2024-01-06T12:08:29.147Z,22.00
2024-01-06T12:18:32.167Z,24.40
2024-01-06T12:28:37.790Z,30.10
2024-01-06T12:38:43.882Z,30.60
2024-01-06T12:48:50.224Z,31.90
2024-01-06T12:58:54.445Z,29.90
2024-01-06T13:08:57.911Z,25.50
2024-01-06T13:19:01.808Z,22.40
2024-01-06T13:29:05.270Z,20.80
2024-01-06T13:39:08.355Z,21.20
2024-01-06T13:49:13.608Z,36.10
2024-01-06T13:59:19.067Z,20.30
2024-01-06T14:09:23.514Z,20.60
2024-01-06T14:19:27.083Z,19.60
2024-01-06T14:29:31.677Z,22.20
2024-01-06T14:39:35.584Z,19.70
2024-01-06T14:49:39.692Z,20.30
2024-01-06T14:59:44.387Z,20.40
2024-01-06T15:09:56.120Z,18.90
2024-01-06T15:20:00.326Z,20.60
2024-01-06T15:30:08.313Z,20.40
2024-01-06T15:40:15.154Z,20.80
2024-01-06T15:50:18.491Z,21.30
2024-01-06T16:00:22.840Z,20.70
2024-01-06T16:10:29.798Z,16.80
2024-01-06T16:20:33.253Z,19.30
2024-01-06T16:30:36.826Z,16.90
2024-01-06T16:40:41.285Z,18.90
2024-01-06T16:50:46.396Z,18.40
2024-01-06T17:00:49.922Z,15.30
2024-01-06T17:10:53.204Z,15.20
2024-01-06T17:20:56.212Z,12.70
2024-01-06T17:31:00.426Z,13.80
2024-01-06T17:41:06.332Z,12.80
2024-01-06T17:51:11.531Z,12.20
2024-01-06T18:01:16.246Z,11.20
2024-01-06T18:11:19.540Z,10.90
2024-01-06T18:21:22.706Z,8.10
2024-01-06T18:31:26.346Z,8.30
2024-01-06T18:41:29.693Z,9.40
2024-01-06T18:51:38.477Z,7.70
2024-01-06T19:01:44.700Z,7.40
2024-01-06T19:11:48.629Z,8.00
2024-01-06T19:21:51.797Z,7.00
2024-01-06T19:31:57.581Z,6.00
2024-01-06T19:42:00.591Z,6.50
2024-01-06T19:52:04.895Z,5.30
2024-01-06T20:02:08.042Z,4.90
2024-01-06T20:12:11.221Z,6.20
2024-01-06T20:22:15.092Z,5.60
2024-01-06T20:32:18.502Z,5.00
2024-01-06T20:42:22.036Z,5.10
2024-01-06T20:52:28.274Z,4.00
2024-01-06T21:02:31.990Z,4.10
2024-01-06T21:12:36.542Z,4.10
2024-01-06T21:22:40.759Z,3.70
2024-01-06T21:32:44.380Z,3.80
2024-01-06T21:42:48.144Z,4.00
2024-01-06T21:52:51.513Z,3.30
2024-01-06T22:02:54.746Z,3.30
2024-01-06T22:12:58.237Z,3.60
2024-01-06T22:23:01.532Z,3.50
2024-01-06T22:33:05.353Z,4.10
2024-01-06T22:43:08.472Z,3.50
2024-01-06T22:53:11.589Z,3.50
2024-01-06T23:03:15.074Z,4.10
2024-01-06T23:13:20.093Z,4.00
2024-01-06T23:23:23.201Z,4.80
2024-01-06T23:33:26.596Z,4.80
2024-01-06T23:43:30.015Z,4.80
2024-01-06T23:53:33.259Z,5.10
